Time;durP1;ratioP1;P1;durP2;ratioP2;P2;SDS_P1;SDS_P2;PMS_P1;PMS_P2;Temp;Humidity;BMP_temperature;BMP_pressure;BME280_temperature;BME280_humidity;BME280_pressure;Samples;Min_cycle;Max_cycle;Signal;HPM_P1;HPM_P2
2023/10/10 00:00:55;;;;;;;42.58;3.20;;;;;;;22.84;57.13;99679.88;7314317;19;131604;-40
2023/10/10 00:03:27;;;;;;;78.50;4.97;;;;;;;22.86;58.34;99686.63;7311622;19;129582;-39
2023/10/10 00:05:57;;;;;;;37.00;3.05;;;;;;;22.75;56.80;99660.59;7312156;19;129220;-37
2023/10/10 00:08:43;;;;;;;60.08;3.88;;;;;;;22.72;54.59;99686.28;7311169;19;129801;-37
2023/10/10 00:11:14;;;;;;;91.63;5.43;;;;;;;22.94;55.94;99688.53;7311643;19;129400;-38
2023/10/10 00:13:43;;;;;;;72.10;4.85;;;;;;;22.98;56.02;99684.63;7311798;19;130073;-36
2023/10/10 00:16:11;;;;;;;44.05;3.38;;;;;;;22.78;56.81;99670.78;7310289;19;129162;-37
2023/10/10 00:18:43;;;;;;;42.63;3.22;;;;;;;22.90;56.99;99689.78;7311084;19;129239;-39
2023/10/10 00:21:20;;;;;;;65.53;4.45;;;;;;;22.90;56.55;99679.28;7310847;19;128941;-39
2023/10/10 00:23:49;;;;;;;;;;;;;;;22.92;57.90;99690.47;7312143;19;130694;-38
2023/10/10 00:26:15;;;;;;;111.55;6.53;;;;;;;22.87;56.75;99679.59;7311166;19;130215;-38
2023/10/10 00:28:44;;;;;;;35.60;2.90;;;;;;;22.87;57.17;99684.81;7311728;19;129570;-39
2023/10/10 00:31:11;;;;;;;66.10;4.57;;;;;;;22.85;56.84;99684.97;7311407;19;129339;-39
2023/10/10 00:33:40;;;;;;;37.72;2.90;;;;;;;22.89;56.71;99686.31;7311490;19;130262;-39
2023/10/10 00:36:12;;;;;;;93.22;5.20;;;;;;;22.87;56.78;99679.59;7309001;19;130466;-37
2023/10/10 00:38:38;;;;;;;61.08;3.92;;;;;;;22.86;57.18;99673.50;7310459;19;128875;-38
2023/10/10 00:41:07;;;;;;;42.00;3.27;;;;;;;22.89;57.32;99672.41;7313059;19;131270;-38
2023/10/10 00:43:33;;;;;;;32.92;2.85;;;;;;;22.87;57.47;99659.41;7310850;19;130179;-41
2023/10/10 00:46:04;;;;;;;72.73;4.50;;;;;;;22.89;57.08;99659.28;7311783;19;130404;-39
2023/10/10 00:48:31;;;;;;;61.47;3.80;;;;;;;22.88;57.55;99665.50;7311610;19;128931;-38
2023/10/10 00:51:10;;;;;;;45.95;3.42;;;;;;;22.87;57.39;99663.84;7312260;19;128980;-38
2023/10/10 00:53:39;;;;;;;58.08;4.05;;;;;;;22.76;57.04;99657.00;7310989;19;130210;-39
2023/10/10 00:56:08;;;;;;;43.33;3.35;;;;;;;22.85;57.33;99676.28;7309385;19;130448;-40
2023/10/10 00:58:37;;;;;;;70.22;4.07;;;;;;;22.87;57.97;99685.63;7309548;19;128751;-39
2023/10/10 01:01:07;;;;;;;58.60;3.80;;;;;;;22.86;57.70;99673.50;7312414;19;129364;-37
2023/10/10 01:03:34;;;;;;;48.70;3.20;;;;;;;22.86;57.42;99680.53;7311119;19;130826;-39
2023/10/10 01:06:05;;;;;;;43.75;3.15;;;;;;;22.86;57.48;99680.53;7310405;19;130920;-38
2023/10/10 01:08:53;;;;;;;62.50;3.83;;;;;;;22.82;58.23;99672.16;7311432;19;128861;-39
2023/10/10 01:11:19;;;;;;;41.33;3.63;;;;;;;22.87;57.89;99676.97;7310636;19;129806;-39
2023/10/10 01:13:45;;;;;;;79.80;4.38;;;;;;;22.85;57.16;99671.88;7311282;19;130157;-38
2023/10/10 01:16:12;;;;;;;77.80;4.70;;;;;;;22.85;57.20;99665.78;7307320;19;131550;-37
2023/10/10 01:19:02;;;;;;;53.40;3.70;;;;;;;22.84;58.23;99664.94;7309630;19;129528;-39
2023/10/10 01:21:31;;;;;;;34.08;3.00;;;;;;;22.84;57.94;99664.16;7309437;19;129769;-38
2023/10/10 01:24:01;;;;;;;22.85;2.08;;;;;;;22.83;57.11;99665.94;7309592;19;130953;-39
2023/10/10 01:26:36;;;;;;;94.43;5.30;;;;;;;22.82;57.55;99663.47;7309017;19;130358;-38
2023/10/10 01:29:14;;;;;;;58.90;3.65;;;;;;;22.85;57.21;99660.53;7308917;19;129903;-38
2023/10/10 01:31:42;;;;;;;20.42;1.98;;;;;;;22.73;55.27;99666.94;7310843;19;129310;-38
2023/10/10 01:34:23;;;;;;;15.57;1.77;;;;;;;22.89;56.29;99672.41;7309974;19;130817;-37
2023/10/10 01:36:50;;;;;;;38.63;2.90;;;;;;;22.91;56.02;99667.81;7307256;19;130852;-37
2023/10/10 01:39:28;;;;;;;62.65;3.95;;;;;;;22.85;57.10;99666.63;7308184;19;128958;-39
2023/10/10 01:41:54;;;;;;;56.40;3.67;;;;;;;22.86;56.69;99670.03;7309961;19;129465;-39
2023/10/10 01:44:22;;;;;;;86.30;5.30;;;;;;;22.73;56.94;99652.06;7309377;19;130078;-37
2023/10/10 01:46:50;;;;;;;32.63;2.38;;;;;;;22.72;57.11;99649.59;7310108;19;130538;-38
2023/10/10 01:49:20;;;;;;;74.82;4.68;;;;;;;22.85;57.50;99678.91;7307908;19;129047;-38
2023/10/10 01:51:50;;;;;;;52.58;3.75;;;;;;;22.85;57.28;99671.03;7309406;19;129157;-39
2023/10/10 01:54:17;;;;;;;120.72;6.88;;;;;;;22.69;57.44;99644.63;7308583;19;130189;-37
2023/10/10 01:56:43;;;;;;;19.05;2.00;;;;;;;22.86;57.48;99677.91;7308097;19;130417;-39
2023/10/10 01:59:25;;;;;;;54.40;3.43;;;;;;;22.87;57.32;99680.38;7306229;19;129393;-34
2023/10/10 02:01:55;;;;;;;42.33;3.08;;;;;;;22.72;57.65;99655.66;7308602;19;129448;-39
2023/10/10 02:04:27;;;;;;;80.20;4.75;;;;;;;22.86;57.02;99675.28;7308203;19;130276;-39
2023/10/10 02:06:57;;;;;;;79.70;4.55;;;;;;;22.83;57.78;99672.97;7308522;19;130290;-33
2023/10/10 02:11:54;;;;;;;41.33;2.97;;;;;;;22.87;57.67;99675.16;7308293;19;129577;-39
2023/10/10 02:14:24;;;;;;;94.40;5.60;;;;;;;22.86;56.93;99680.53;7306947;19;130056;-39
2023/10/10 02:16:54;;;;;;;57.13;3.53;;;;;;;22.86;57.04;99675.28;7306631;19;130490;-38
2023/10/10 02:19:32;;;;;;;94.05;5.35;;;;;;;22.85;57.57;99673.66;7307736;19;129729;-37
2023/10/10 02:22:15;;;;;;;37.17;2.53;;;;;;;22.74;57.39;99642.41;7309212;19;129217;-39
2023/10/10 02:24:48;;;;;;;56.38;3.33;;;;;;;22.85;57.16;99660.53;7308862;19;130176;-38
2023/10/10 02:27:19;;;;;;;64.90;4.22;;;;;;;22.79;57.63;99661.13;7308055;19;130525;-37
2023/10/10 02:29:48;;;;;;;71.30;4.22;;;;;;;22.69;57.82;99644.63;7310304;19;131022;-39
2023/10/10 02:32:18;;;;;;;63.70;3.92;;;;;;;22.83;57.19;99668.56;7314455;19;128889;-39
2023/10/10 02:35:06;;;;;;;94.78;5.15;;;;;;;22.77;57.38;99660.44;7314697;19;130205;-36
2023/10/10 02:37:45;;;;;;;93.80;4.97;;;;;;;22.73;57.99;99656.47;7313674;19;131116;-38
2023/10/10 02:40:15;;;;;;;64.22;3.78;;;;;;;22.80;57.85;99668.03;7312607;19;129064;-34
2023/10/10 02:42:50;;;;;;;39.05;2.55;;;;;;;22.84;58.60;99677.25;7315251;19;128797;-37
2023/10/10 02:45:17;;;;;;;48.40;3.20;;;;;;;22.82;57.62;99660.84;7315665;19;131562;-39
2023/10/10 02:47:52;;;;;;;41.83;2.88;;;;;;;22.83;57.85;99665.09;7313266;19;130433;-38
2023/10/10 02:50:39;;;;;;;95.20;5.22;;;;;;;22.82;57.40;99671.34;7311691;19;129482;-38
2023/10/10 02:53:08;;;;;;;60.35;3.53;;;;;;;22.75;55.65;99667.63;7314558;19;129119;-39
2023/10/10 02:55:41;;;;;;;41.88;2.60;;;;;;;22.82;56.55;99652.97;7314562;19;130271;-38
2023/10/10 02:58:20;;;;;;;23.83;1.92;;;;;;;22.80;56.38;99657.53;7307492;19;130624;-40
2023/10/10 03:00:50;;;;;;;49.95;3.20;;;;;;;22.85;56.91;99671.88;7316811;19;129068;-37
2023/10/10 03:03:18;;;;;;;36.58;2.42;;;;;;;22.85;56.79;99676.28;7314016;19;129408;-38
2023/10/10 03:05:50;;;;;;;92.72;4.80;;;;;;;22.75;57.78;99665.00;7314057;19;130328;-38
2023/10/10 03:08:34;;;;;;;94.43;4.90;;;;;;;22.75;57.10;99654.53;7313726;19;130697;-38
2023/10/10 03:11:00;;;;;;;75.38;3.97;;;;;;;22.83;57.11;99671.19;7313600;19;130046;-39
2023/10/10 03:13:28;;;;;;;56.13;3.47;;;;;;;22.84;57.44;99678.06;7314365;19;128872;-38
2023/10/10 03:16:11;;;;;;;41.45;2.67;;;;;;;22.84;57.34;99677.25;7313156;19;132320;-37
2023/10/10 03:18:37;;;;;;;30.58;2.28;;;;;;;22.85;57.30;99677.13;7312752;19;131068;-40
2023/10/10 03:23:56;;;;;;;76.70;4.07;;;;;;;22.84;57.53;99680.69;7313760;19;128945;-37
2023/10/10 03:26:51;;;;;;;101.13;5.47;;;;;;;22.83;57.07;99678.22;7313253;19;131233;-37
2023/10/10 03:29:21;;;;;;;85.72;4.55;;;;;;;22.85;57.61;99681.53;7311980;19;130704;-38
2023/10/10 03:31:55;;;;;;;58.70;3.30;;;;;;;22.83;57.78;99680.84;7314387;19;129353;-38
2023/10/10 03:34:32;;;;;;;113.57;6.55;;;;;;;22.83;57.62;99676.41;7311155;19;128797;-34
2023/10/10 03:37:27;;;;;;;70.45;3.97;;;;;;;22.83;57.78;99672.97;7308459;19;131710;-38
2023/10/10 03:40:20;;;;;;;47.45;2.70;;;;;;;22.82;57.28;99681.81;7311599;19;131043;-39
2023/10/10 05:24:08;;;;;;;32.58;2.10;;;;;;;23.39;56.79;99728.72;7309995;19;129064;-38
2023/10/10 05:26:37;;;;;;;107.70;5.55;;;;;;;23.57;55.86;99732.19;7309258;19;130030;-39
2023/10/10 05:29:02;;;;;;;47.15;2.72;;;;;;;23.80;55.47;99722.88;7309305;19;131286;-37
2023/10/10 05:31:30;;;;;;;74.40;4.30;;;;;;;23.71;54.69;99708.06;7308928;19;129735;-39
2023/10/10 05:33:56;;;;;;;25.73;1.77;;;;;;;24.09;54.04;99725.31;7311262;19;129478;-39
2023/10/10 05:36:24;;;;;;;76.90;3.93;;;;;;;24.05;54.57;99721.31;7307406;19;130892;-39
2023/10/10 05:38:50;;;;;;;46.08;2.67;;;;;;;24.06;54.42;99734.34;7308987;19;130265;-37
2023/10/10 05:41:18;;;;;;;60.92;3.15;;;;;;;24.00;54.17;99711.28;7310211;19;129019;-40
2023/10/10 05:43:49;;;;;;;33.38;2.17;;;;;;;24.09;54.46;99733.19;7307999;19;129227;-38
2023/10/10 05:46:15;;;;;;;55.45;3.25;;;;;;;24.39;53.45;99735.38;7309038;19;130098;-37
2023/10/10 05:48:41;;;;;;;56.97;3.00;;;;;;;24.48;52.82;99734.44;7303610;19;131030;-37
2023/10/10 05:51:09;;;;;;;40.83;2.40;;;;;;;24.66;52.61;99742.28;7308601;19;129291;-39
2023/10/10 05:53:34;;;;;;;66.57;3.85;;;;;;;24.83;52.63;99733.53;7304083;19;128982;-35
2023/10/10 05:56:12;;;;;;;193.30;9.50;;;;;;;24.83;52.12;99729.09;7289448;19;130028;-38
2023/10/10 05:58:38;;;;;;;219.88;10.85;;;;;;;25.14;52.01;99737.28;7299660;19;130393;-39
2023/10/10 06:01:03;;;;;;;36.90;2.33;;;;;;;25.26;50.70;99736.00;7302733;19;129477;-36
2023/10/10 06:03:31;;;;;;;67.03;4.23;;;;;;;25.31;50.89;99741.59;7311508;19;129431;-39
2023/10/10 06:05:57;;;;;;;35.40;2.33;;;;;;;25.59;49.87;99720.16;7315002;19;129122;-39
2023/10/10 06:08:25;;;;;;;91.78;4.50;;;;;;;25.71;50.07;99731.22;7311133;19;130441;-39
2023/10/10 06:10:50;;;;;;;48.72;2.75;;;;;;;25.78;49.26;99726.09;7317156;19;129249;-39
2023/10/10 06:13:16;;;;;;;38.97;2.43;;;;;;;25.65;49.80;99743.19;7314957;19;128888;-36
2023/10/10 06:15:43;;;;;;;66.93;3.90;;;;;;;25.72;50.41;99738.09;7314369;19;129304;-39
2023/10/10 06:18:08;;;;;;;73.20;3.75;;;;;;;25.63;50.51;99750.44;7315395;19;130362;-39
2023/10/10 06:20:40;;;;;;;66.40;4.00;;;;;;;25.43;51.04;99748.25;7314262;19;129034;-39
2023/10/10 06:23:11;;;;;;;39.97;2.47;;;;;;;25.13;51.55;99751.41;7315463;19;129102;-39
2023/10/10 06:25:37;;;;;;;78.05;4.78;;;;;;;24.86;51.91;99743.75;7312774;19;130358;-39
2023/10/10 06:28:05;;;;;;;71.68;4.10;;;;;;;24.78;52.74;99756.81;7308852;19;130369;-39
2023/10/10 06:30:37;;;;;;;62.72;3.63;;;;;;;24.60;52.92;99763.91;7311894;19;129117;-39
2023/10/10 06:33:14;;;;;;;25.30;1.98;;;;;;;24.45;53.37;99769.75;7316023;19;129709;-38
2023/10/10 06:35:40;;;;;;;61.80;3.90;;;;;;;24.31;53.94;99770.28;7312378;19;131386;-35
2023/10/10 06:38:10;;;;;;;43.37;3.03;;;;;;;24.16;54.71;99769.19;7313799;19;131080;-39
2023/10/10 06:40:53;;;;;;;100.20;5.63;;;;;;;23.99;55.35;99764.78;7312207;19;129199;-39
2023/10/10 06:43:22;;;;;;;75.35;4.00;;;;;;;23.83;55.23;99759.34;7313834;19;128858;-37
2023/10/10 06:45:56;;;;;;;45.97;2.67;;;;;;;23.77;55.30;99769.63;7314202;19;130836;-40
2023/10/10 06:48:22;;;;;;;34.10;2.35;;;;;;;23.63;54.72;99763.09;7313749;19;130415;-38
2023/10/10 06:50:49;;;;;;;44.77;2.93;;;;;;;23.62;56.20;99771.94;7313070;19;129308;-40
2023/10/10 06:53:36;;;;;;;53.33;3.17;;;;;;;23.52;55.84;99775.63;7314199;19;129501;-39
2023/10/10 06:59:01;;;;;;;65.63;3.80;;;;;;;23.40;56.26;99777.63;7309106;19;130825;-39
2023/10/10 07:01:28;;;;;;;94.70;5.03;;;;;;;23.33;56.68;99776.53;7314331;19;128864;-38
2023/10/10 07:03:56;;;;;;;38.13;2.53;;;;;;;23.29;56.95;99769.94;7314822;19;130158;-36
2023/10/10 07:06:21;;;;;;;35.92;2.28;;;;;;;23.13;56.93;99765.28;7313998;19;130189;-39
2023/10/10 07:09:14;;;;;;;18.33;1.63;;;;;;;23.15;57.55;99783.50;7310680;19;130378;-39
2023/10/10 07:11:38;;;;;;;82.32;4.82;;;;;;;23.09;57.69;99781.44;7312563;19;128802;-39
2023/10/10 07:14:07;;;;;;;72.57;3.95;;;;;;;23.11;57.74;99779.50;7312653;19;128974;-39
2023/10/10 07:16:33;;;;;;;75.78;4.40;;;;;;;23.23;58.01;99786.22;7313297;19;131134;-37
2023/10/10 07:18:58;;;;;;;25.37;1.80;;;;;;;23.33;57.35;99781.78;7310695;19;131578;-40
2023/10/10 07:21:30;;;;;;;37.30;2.53;;;;;;;23.43;56.60;99790.44;7313271;19;129524;-39
2023/10/10 07:24:05;;;;;;;81.28;4.55;;;;;;;23.51;56.38;99774.78;7309593;19;130702;-39
2023/10/10 07:26:31;;;;;;;104.53;5.50;;;;;;;23.93;55.72;99781.09;7309317;19;130837;-37
2023/10/10 07:28:57;;;;;;;83.93;4.90;;;;;;;24.06;55.41;99786.88;7308831;19;131089;-38
2023/10/10 07:31:24;;;;;;;16.30;1.55;;;;;;;24.11;54.87;99789.84;7307774;19;130893;-39
2023/10/10 07:33:56;;;;;;;53.30;2.97;;;;;;;24.08;55.21;99790.13;7310159;19;130036;-36
2023/10/10 07:36:26;;;;;;;83.70;4.40;;;;;;;24.00;54.83;99797.94;7310960;19;130075;-38
2023/10/10 07:39:32;;;;;;;100.55;5.32;;;;;;;23.93;55.44;99786.34;7308712;19;130447;-35
2023/10/10 07:41:47;;;;;;;116.57;6.60;;;;;;;23.89;54.78;99803.41;7311401;19;129028;-39
2023/10/10 07:44:16;;;;;;;53.47;3.08;;;;;;;23.86;55.45;99801.09;7311971;19;129583;-39
2023/10/10 07:47:07;;;;;;;53.55;3.40;;;;;;;23.75;56.46;99797.84;7311963;19;130950;-37
2023/10/10 07:49:27;;;;;;;61.50;3.58;;;;;;;23.68;56.03;99802.03;7309175;19;130930;-39
2023/10/10 07:51:52;;;;;;;54.47;3.17;;;;;;;23.55;57.06;99797.13;7311542;19;129797;-39
2023/10/10 07:54:29;;;;;;;73.97;4.07;;;;;;;23.52;56.39;99801.84;7311860;19;129539;-38
2023/10/10 07:56:55;;;;;;;81.63;4.85;;;;;;;23.46;57.66;99808.50;7310052;19;130981;-36
2023/10/10 07:59:20;;;;;;;49.17;3.15;;;;;;;23.41;54.85;99813.38;7307775;19;130456;-38
2023/10/10 08:01:47;;;;;;;69.23;4.43;;;;;;;23.37;56.73;99809.38;7310709;19;129157;-42
2023/10/10 08:04:14;;;;;;;74.18;4.25;;;;;;;23.30;57.29;99818.81;7310539;19;128914;-37
2023/10/10 08:06:44;;;;;;;64.70;3.90;;;;;;;23.24;57.51;99811.47;7308684;19;130884;-38
2023/10/10 08:11:41;;;;;;;74.00;4.50;;;;;;;23.16;57.82;99814.00;7310814;19;129452;-38
2023/10/10 08:14:08;;;;;;;91.53;5.33;;;;;;;23.12;57.66;99815.28;7309249;19;128901;-39
2023/10/10 08:16:42;;;;;;;67.55;3.88;;;;;;;22.93;58.33;99796.97;7310189;19;130075;-38
2023/10/10 08:19:08;;;;;;;20.63;1.70;;;;;;;23.02;58.34;99824.97;7311869;19;131061;-38
2023/10/10 08:21:38;;;;;;;75.67;4.17;;;;;;;22.97;58.23;99824.56;7312321;19;129012;-39
2023/10/10 08:24:07;;;;;;;61.38;3.45;;;;;;;22.92;58.06;99819.72;7308851;19;129543;-39
2023/10/10 08:26:39;;;;;;;94.85;4.78;;;;;;;22.88;59.11;99812.31;7306208;19;130178;-38
2023/10/10 08:29:09;;;;;;;51.15;3.10;;;;;;;22.85;59.27;99812.59;7311137;19;130005;-35
2023/10/10 08:31:38;;;;;;;30.42;2.13;;;;;;;22.84;58.78;99816.19;7312407;19;129077;-39
2023/10/10 08:34:08;;;;;;;42.17;2.38;;;;;;;22.86;58.84;99809.00;7310060;19;129723;-39
2023/10/10 08:36:34;;;;;;;50.13;2.97;;;;;;;23.02;58.64;99809.25;7310954;19;130427;-39
2023/10/10 08:39:49;;;;;;;105.03;5.63;;;;;;;23.19;58.29;99811.09;7309858;19;131083;-38
2023/10/10 08:41:45;;;;;;;94.93;5.20;;;;;;;23.41;57.58;99816.00;7308913;19;129787;-38
2023/10/10 08:44:14;;;;;;;49.23;2.93;;;;;;;23.50;56.69;99794.13;7311406;19;129509;-39
2023/10/10 08:46:41;;;;;;;73.93;4.32;;;;;;;23.78;55.41;99814.13;7310835;19;130211;-38
2023/10/10 08:49:08;;;;;;;76.88;4.03;;;;;;;23.97;55.60;99811.34;7309826;19;130390;-39
2023/10/10 08:51:34;;;;;;;101.13;5.50;;;;;;;23.96;55.29;99807.09;7311190;19;129530;-37
2023/10/10 08:54:00;;;;;;;;;;;;;;;23.82;55.25;99797.09;7311359;19;128819;-39
2023/10/10 08:56:25;;;;;;;40.03;2.53;;;;;;;23.93;55.92;99812.63;7309934;19;130602;-37
2023/10/10 08:58:51;;;;;;;84.53;4.97;;;;;;;23.89;55.32;99807.81;7309049;19;130286;-39
2023/10/10 09:01:16;;;;;;;74.00;3.73;;;;;;;23.80;55.76;99812.16;7311849;19;129185;-38
2023/10/10 09:03:45;;;;;;;77.57;4.40;;;;;;;23.77;55.88;99817.72;7310477;19;129867;-38
2023/10/10 09:06:19;;;;;;;53.17;3.22;;;;;;;23.53;56.05;99809.59;7309886;19;130505;-40
2023/10/10 09:08:49;;;;;;;40.38;2.40;;;;;;;23.48;54.57;99826.72;7309279;19;129625;-40
2023/10/10 09:11:20;;;;;;;94.38;4.70;;;;;;;23.50;56.82;99825.63;7310095;19;129817;-40
2023/10/10 09:13:51;;;;;;;51.97;3.10;;;;;;;23.49;56.77;99823.97;7310406;19;129188;-38
2023/10/10 09:16:19;;;;;;;28.45;2.03;;;;;;;23.43;57.06;99819.31;7309525;19;130200;-38
2023/10/10 09:18:45;;;;;;;78.38;4.55;;;;;;;23.36;56.83;99820.84;7308253;19;129171;-38
2023/10/10 09:21:21;;;;;;;72.22;3.92;;;;;;;23.32;57.64;99824.72;7310728;19;130918;-39
2023/10/10 09:24:06;;;;;;;109.67;5.63;;;;;;;23.17;57.04;99807.81;7310004;19;129142;-39
2023/10/10 09:26:36;;;;;;;94.78;4.78;;;;;;;23.20;57.30;99824.06;7309513;19;130086;-38
2023/10/10 09:29:15;;;;;;;47.00;2.80;;;;;;;23.16;57.94;99827.13;7308629;19;130203;-39
2023/10/10 09:31:45;;;;;;;33.70;2.13;;;;;;;23.13;58.20;99827.41;7310093;19;128951;-36
2023/10/10 09:34:12;;;;;;;37.42;2.17;;;;;;;23.09;57.62;99826.03;7308184;19;128937;-39
2023/10/10 09:36:39;;;;;;;58.78;3.35;;;;;;;23.05;58.10;99824.69;7307359;19;130207;-39
2023/10/10 09:39:09;;;;;;;94.85;4.63;;;;;;;22.97;58.27;99829.81;7313153;19;131020;-39
2023/10/10 09:49:46;;;;;;;38.83;2.55;;;;;;;22.83;59.24;99825.00;7315106;19;129591;-39
2023/10/10 09:58:16;;;;;;;43.67;2.50;;;;;;;22.69;60.04;99828.09;7312477;19;129792;-38
2023/10/10 10:03:36;;;;;;;40.78;2.30;;;;;;;22.70;59.17;99825.31;7317166;19;129512;-39
2023/10/10 10:09:32;;;;;;;68.53;3.75;;;;;;;22.65;59.76;99837.19;7312793;19;128990;-38
2023/10/10 10:12:19;;;;;;;66.60;3.90;;;;;;;;;;7315235;19;131254;-38
2023/10/10 10:15:06;;;;;;;59.70;3.60;;;;;;;22.65;60.08;99842.44;7314517;19;128821;-38
2023/10/10 10:17:53;;;;;;;31.27;2.20;;;;;;;22.65;59.66;99847.69;7313976;19;129290;-39
2023/10/10 10:20:45;;;;;;;24.47;1.77;;;;;;;22.65;59.48;99840.66;7313012;19;130393;-38
2023/10/10 10:23:26;;;;;;;53.33;3.13;;;;;;;22.60;59.03;99818.44;7315806;19;130915;-40
2023/10/10 10:25:53;;;;;;;61.60;3.70;;;;;;;22.86;56.58;99840.44;7315668;19;129451;-40
2023/10/10 10:28:28;;;;;;;30.50;2.00;;;;;;;22.95;58.74;99835.22;7312642;19;129069;-39
2023/10/10 10:30:54;;;;;;;96.47;5.22;;;;;;;23.01;58.47;99813.66;7313588;19;130306;-39
2023/10/10 10:33:22;;;;;;;49.97;2.80;;;;;;;23.31;57.83;99830.94;7315251;19;130327;-39
2023/10/10 10:35:48;;;;;;;58.60;3.38;;;;;;;23.59;56.42;99835.22;7314117;19;128840;-39
2023/10/10 10:38:13;;;;;;;34.13;2.47;;;;;;;23.78;56.10;99835.13;7312383;19;128955;-38
2023/10/10 10:43:16;;;;;;;46.28;2.78;;;;;;;23.90;55.90;99844.44;7315701;19;129498;-36
2023/10/10 10:45:51;;;;;;;16.17;1.55;;;;;;;23.83;55.44;99838.13;7315153;19;128935;-35
2023/10/10 10:48:35;;;;;;;50.65;3.15;;;;;;;23.72;56.37;99835.72;7313332;19;129015;-39
2023/10/10 10:51:28;;;;;;;85.03;4.60;;;;;;;23.59;56.08;99814.22;7312164;19;130647;-35
2023/10/10 10:54:02;;;;;;;67.78;3.72;;;;;;;23.63;56.74;99830.53;7314724;19;130561;-35
2023/10/10 10:59:13;;;;;;;90.20;4.75;;;;;;;23.48;57.48;99838.06;7312102;19;129068;-35
2023/10/10 11:01:55;;;;;;;76.25;3.90;;;;;;;23.42;57.21;99838.63;7313225;19;130921;-38
2023/10/10 11:07:02;;;;;;;115.10;5.88;;;;;;;23.27;57.61;99829.56;7314631;19;129611;-38
2023/10/10 11:09:28;;;;;;;36.75;2.22;;;;;;;23.24;57.38;99828.06;7313801;19;129152;-36
2023/10/10 11:12:02;;;;;;;80.32;4.50;;;;;;;23.25;57.98;99815.78;7313259;19;130234;-33
2023/10/10 11:14:31;;;;;;;18.15;1.48;;;;;;;23.19;58.02;99813.72;7313592;19;131179;-36
2023/10/10 11:16:57;;;;;;;103.03;5.35;;;;;;;23.16;58.14;99816.63;7313334;19;129293;-38
2023/10/10 11:21:59;;;;;;;64.30;3.60;;;;;;;23.07;57.86;99812.25;7313685;19;130285;-38
2023/10/10 11:24:29;;;;;;;44.92;2.67;;;;;;;23.02;58.70;99815.28;7312624;19;130432;-38
2023/10/10 11:29:41;;;;;;;69.47;3.38;;;;;;;22.99;58.82;99804.28;7312463;19;129373;-34
2023/10/10 11:32:08;;;;;;;64.88;3.28;;;;;;;22.93;58.43;99800.44;7312762;19;130216;-36
2023/10/10 11:34:43;;;;;;;38.92;2.40;;;;;;;22.89;58.98;99804.28;7314040;19;130954;-36
2023/10/10 11:37:20;;;;;;;56.97;3.33;;;;;;;22.84;59.59;99795.22;7312036;19;129226;-35
2023/10/10 11:40:19;;;;;;;35.38;2.20;;;;;;;22.80;55.99;99775.50;7312093;19;129071;-36
2023/10/10 11:42:34;;;;;;;37.85;2.28;;;;;;;23.04;58.12;99786.28;7312316;19;130702;-35
2023/10/10 11:45:02;;;;;;;79.27;4.50;;;;;;;22.93;58.67;99778.63;7311819;19;131099;-35
2023/10/10 11:47:27;;;;;;;87.28;4.57;;;;;;;22.74;58.94;99758.53;7313499;19;129353;-36
2023/10/10 11:50:00;;;;;;;69.53;3.90;;;;;;;22.65;58.89;99745.47;7312002;19;128889;-35
2023/10/10 11:52:28;;;;;;;12.45;1.20;;;;;;;22.70;59.32;99766.84;7312970;19;130138;-36
2023/10/10 11:54:58;;;;;;;62.65;3.42;;;;;;;22.68;59.41;99768.75;7311375;19;130453;-36
2023/10/10 11:57:28;;;;;;;97.28;4.72;;;;;;;22.64;60.00;99764.78;7311497;19;128946;-36
2023/10/10 11:59:54;;;;;;;88.38;4.95;;;;;;;22.66;59.37;99768.09;7311035;19;128885;-38
2023/10/10 12:02:29;;;;;;;32.80;1.95;;;;;;;22.66;59.28;99760.25;7311939;19;131350;-35
2023/10/10 12:04:55;;;;;;;55.30;3.15;;;;;;;22.64;59.46;99777.91;7312260;19;130408;-35
2023/10/10 12:07:25;;;;;;;44.35;2.92;;;;;;;22.62;60.04;99777.19;7308259;19;129282;-35
2023/10/10 12:09:53;;;;;;;89.20;4.35;;;;;;;22.56;59.74;99762.06;7308137;19;129628;-36
2023/10/10 12:12:19;;;;;;;151.80;7.78;;;;;;;22.66;60.42;99775.97;7295232;19;130142;-36
2023/10/10 12:14:45;;;;;;;118.23;5.97;;;;;;;22.69;59.52;99775.69;7293815;19;131425;-37
2023/10/10 12:17:13;;;;;;;165.93;8.63;;;;;;;22.67;60.04;99772.38;7292414;19;131919;-36
2023/10/10 12:19:43;;;;;;;146.13;7.03;;;;;;;22.62;59.82;99764.09;7292063;19;130798;-39
2023/10/10 12:22:10;;;;;;;103.97;6.15;;;;;;;22.69;60.11;99765.19;7292808;19;132218;-38
2023/10/10 12:24:39;;;;;;;101.18;5.30;;;;;;;22.67;60.23;99769.75;7294899;19;131790;-34
2023/10/10 12:27:08;;;;;;;232.85;12.13;;;;;;;22.69;60.21;99759.94;7288216;19;133468;-35
2023/10/10 12:29:40;;;;;;;145.88;7.07;;;;;;;22.68;60.61;99763.53;7290242;19;130662;-38
2023/10/10 12:32:15;;;;;;;181.18;9.27;;;;;;;22.71;60.11;99765.88;7292032;19;131498;-36
2023/10/10 12:34:45;;;;;;;126.15;6.38;;;;;;;22.74;60.56;99768.22;7294116;19;130812;-41
2023/10/10 12:37:12;;;;;;;153.63;8.23;;;;;;;22.73;60.29;99762.13;7290525;19;129844;-40
2023/10/10 12:39:38;;;;;;;111.07;5.65;;;;;;;22.77;59.91;99765.31;7291472;19;129415;-34
2023/10/10 12:42:04;;;;;;;229.33;11.73;;;;;;;22.88;59.41;99760.72;7291098;19;130830;-39
2023/10/10 12:44:29;;;;;;;131.50;6.63;;;;;;;22.96;59.13;99760.81;7292609;19;130372;-39
2023/10/10 12:46:55;;;;;;;161.50;8.50;;;;;;;23.00;58.39;99761.34;7292380;19;130115;-36
2023/10/10 12:49:28;;;;;;;99.03;5.27;;;;;;;22.87;58.69;99740.69;7287731;19;129557;-33
2023/10/10 12:51:55;;;;;;;150.18;7.25;;;;;;;22.94;55.68;99756.69;7292278;19;133362;-38
2023/10/10 12:54:21;;;;;;;135.38;6.93;;;;;;;22.86;57.36;99731.19;7292063;19;131987;-36
2023/10/10 12:56:54;;;;;;;140.40;7.27;;;;;;;22.89;58.58;99748.44;7292430;19;130083;-38
2023/10/10 12:59:20;;;;;;;126.30;6.45;;;;;;;22.87;58.69;99745.94;7290045;19;129807;-36
2023/10/10 13:01:46;;;;;;;167.13;8.33;;;;;;;22.85;58.51;99749.69;7292254;19;129769;-37
2023/10/10 13:04:17;;;;;;;157.80;7.88;;;;;;;22.66;58.79;99721.72;7291900;19;130435;-40
2023/10/10 13:06:43;;;;;;;134.52;7.18;;;;;;;22.74;58.82;99731.53;7291399;19;129705;-38
2023/10/10 13:09:08;;;;;;;163.97;8.50;;;;;;;22.72;59.46;99738.69;7290397;19;131017;-35
2023/10/10 13:11:43;;;;;;;165.27;8.50;;;;;;;22.74;59.83;99742.00;7292255;19;132813;-36
2023/10/10 13:14:10;;;;;;;192.30;9.73;;;;;;;22.66;59.54;99745.31;7288683;19;130485;-34
2023/10/10 13:19:09;;;;;;;149.63;8.07;;;;;;;;;;7289118;19;129640;-41
2023/10/10 13:21:39;;;;;;;128.77;6.68;;;;;;;22.65;60.15;99741.06;7291021;19;130794;-36
2023/10/10 13:24:09;;;;;;;135.68;7.25;;;;;;;22.61;59.50;99731.00;7291290;19;129861;-38
2023/10/10 13:26:39;;;;;;;177.55;8.45;;;;;;;22.59;60.08;99728.50;7291129;19;129862;-36
2023/10/10 13:29:05;;;;;;;137.02;7.22;;;;;;;22.57;59.80;99722.59;7290700;19;129197;-34
2023/10/10 13:31:31;;;;;;;137.00;6.93;;;;;;;22.54;60.09;99714.19;7289725;19;131728;-35
2023/10/10 13:33:57;;;;;;;109.13;5.93;;;;;;;22.59;60.27;99711.97;7290110;19;131414;-39
2023/10/10 13:36:23;;;;;;;159.10;7.77;;;;;;;22.54;60.38;99719.44;7290494;19;132915;-37
2023/10/10 13:38:50;;;;;;;134.40;7.20;;;;;;;22.53;60.26;99723.84;7289614;19;129288;-38
2023/10/10 13:41:18;;;;;;;179.43;9.20;;;;;;;22.57;60.25;99724.41;7287779;19;131033;-37
2023/10/10 13:43:48;;;;;;;135.15;6.70;;;;;;;22.46;59.80;99708.81;7289982;19;130584;-34
2023/10/10 13:46:20;;;;;;;167.82;8.77;;;;;;;22.50;59.94;99710.16;7290661;19;129961;-36
2023/10/10 13:48:47;;;;;;;144.77;7.25;;;;;;;22.60;60.63;99726.72;7290468;19;129777;-41
2023/10/10 13:51:14;;;;;;;124.82;6.55;;;;;;;22.52;59.92;99706.47;7290610;19;129650;-36
2023/10/10 13:53:40;;;;;;;144.38;7.40;;;;;;;22.63;60.01;99729.06;7290004;19;132117;-36
2023/10/10 13:56:07;;;;;;;;;;;;;;;22.68;60.63;99722.41;7291295;19;129411;-41
2023/10/10 13:58:33;;;;;;;152.35;7.43;;;;;;;22.66;60.58;99719.13;7286857;19;129051;-36
2023/10/10 14:01:15;;;;;;;128.30;6.72;;;;;;;22.68;60.23;99713.72;7289798;19;129709;-40